createdAt,value
2018-07-19T00:00:20.249Z,23.28
2018-07-19T00:04:23.745Z,23.26
2018-07-19T00:08:27.222Z,23.24
2018-07-19T00:12:30.693Z,23.22
2018-07-19T00:16:35.835Z,23.19
2018-07-19T00:20:39.308Z,23.19
2018-07-19T00:24:42.813Z,23.19
2018-07-19T00:28:46.291Z,23.18
2018-07-19T00:32:49.805Z,23.17
2018-07-19T00:36:53.289Z,23.14
2018-07-19T00:40:56.786Z,23.12
2018-07-19T00:45:00.271Z,23.06
2018-07-19T00:49:03.730Z,23.03
2018-07-19T00:53:07.233Z,22.99
2018-07-19T00:57:10.903Z,22.96
2018-07-19T01:01:14.457Z,22.93
2018-07-19T01:05:17.890Z,22.90
2018-07-19T01:09:21.376Z,22.88
2018-07-19T01:13:24.844Z,22.86
2018-07-19T01:17:28.402Z,22.84
2018-07-19T01:21:33.947Z,22.82
2018-07-19T01:25:37.586Z,22.79
2018-07-19T01:29:41.085Z,22.77
2018-07-19T01:33:44.590Z,22.73
2018-07-19T01:37:48.067Z,22.70
2018-07-19T01:42:32.667Z,22.68
2018-07-19T01:46:36.155Z,22.65
2018-07-19T01:50:39.633Z,22.63
2018-07-19T01:54:43.449Z,22.61
2018-07-19T01:58:46.939Z,22.58
2018-07-19T02:02:56.233Z,22.55
2018-07-19T02:06:59.662Z,22.55
2018-07-19T02:11:03.135Z,22.54
2018-07-19T02:15:06.969Z,22.54
2018-07-19T02:19:10.967Z,22.53
2018-07-19T02:23:14.457Z,22.51
2018-07-19T02:27:17.945Z,22.50
2018-07-19T02:31:21.367Z,22.47
2018-07-19T02:35:24.828Z,22.44
2018-07-19T02:39:28.284Z,22.40
2018-07-19T02:43:31.743Z,22.37
2018-07-19T02:47:36.038Z,22.34
2018-07-19T02:51:40.508Z,22.31
2018-07-19T02:55:43.995Z,22.26
2018-07-19T02:59:47.555Z,22.22
2018-07-19T03:03:51.066Z,22.17
2018-07-19T03:07:54.585Z,22.14
2018-07-19T03:11:58.062Z,22.11
2018-07-19T03:16:01.536Z,22.10
2018-07-19T03:20:05.001Z,22.06
2018-07-19T03:24:08.493Z,22.06
2018-07-19T03:28:11.991Z,22.04
2018-07-19T03:32:15.430Z,22.03
2018-07-19T03:36:18.904Z,21.99
2018-07-19T03:40:22.426Z,21.95
2018-07-19T03:44:25.948Z,21.94
2018-07-19T03:48:29.457Z,21.93
2018-07-19T03:52:32.955Z,21.94
2018-07-19T03:56:36.474Z,21.93
2018-07-19T04:00:39.984Z,21.91
2018-07-19T04:04:43.481Z,21.90
2018-07-19T04:08:46.973Z,21.87
2018-07-19T04:12:50.451Z,21.85
2018-07-19T04:16:53.957Z,21.82
2018-07-19T04:20:57.468Z,21.80
2018-07-19T04:25:00.980Z,21.78
2018-07-19T04:29:04.442Z,21.79
2018-07-19T04:33:07.948Z,21.79
2018-07-19T04:37:11.430Z,21.77
2018-07-19T04:41:14.932Z,21.79
2018-07-19T04:45:18.438Z,21.80
2018-07-19T04:49:21.963Z,21.83
2018-07-19T04:53:25.446Z,21.84
2018-07-19T04:57:28.913Z,21.86
2018-07-19T05:01:32.366Z,21.91
2018-07-19T05:05:35.851Z,21.98
2018-07-19T05:09:39.306Z,22.06
2018-07-19T05:13:42.769Z,22.13
2018-07-19T05:17:46.283Z,22.26
2018-07-19T05:21:49.770Z,22.45
2018-07-19T05:25:53.176Z,22.68
2018-07-19T05:29:56.632Z,22.89
2018-07-19T05:34:00.105Z,23.14
2018-07-19T05:38:03.587Z,23.38
2018-07-19T05:42:07.088Z,23.57
2018-07-19T05:46:10.540Z,23.67
2018-07-19T05:50:14.015Z,23.74
2018-07-19T05:54:17.486Z,23.75
2018-07-19T05:58:21.059Z,23.77
2018-07-19T06:02:24.468Z,23.84
2018-07-19T06:06:27.929Z,23.97
2018-07-19T06:10:31.381Z,24.02
2018-07-19T06:14:34.859Z,24.12
2018-07-19T06:18:38.358Z,24.13
2018-07-19T06:22:41.801Z,24.09
2018-07-19T06:26:45.272Z,24.07
2018-07-19T06:30:48.722Z,24.09
2018-07-19T06:34:52.171Z,24.13
2018-07-19T06:38:55.698Z,24.21
2018-07-19T06:42:59.162Z,24.26
2018-07-19T06:47:02.640Z,24.39
2018-07-19T06:51:06.486Z,24.47
2018-07-19T06:55:09.958Z,24.49
2018-07-19T06:59:13.427Z,24.54
2018-07-19T07:03:16.963Z,24.65
2018-07-19T07:07:20.421Z,24.86
2018-07-19T07:11:24.022Z,24.99
2018-07-19T07:15:27.482Z,25.10
2018-07-19T07:19:30.939Z,25.25
2018-07-19T07:23:34.379Z,25.42
2018-07-19T07:27:37.845Z,25.52
2018-07-19T07:31:41.320Z,25.53
2018-07-19T07:35:45.226Z,25.62
2018-07-19T07:39:48.741Z,25.59
2018-07-19T07:43:52.199Z,25.57
2018-07-19T07:47:55.660Z,25.65
2018-07-19T07:51:59.312Z,25.66
2018-07-19T07:56:02.771Z,25.67
2018-07-19T08:00:07.179Z,25.77
2018-07-19T08:04:10.603Z,25.86
2018-07-19T08:08:14.050Z,25.92
2018-07-19T08:12:17.519Z,25.99
2018-07-19T08:16:21.010Z,26.05
2018-07-19T08:20:24.429Z,26.30
2018-07-19T08:24:27.931Z,26.50
2018-07-19T08:28:31.389Z,26.67
2018-07-19T08:32:35.039Z,26.86
2018-07-19T08:36:38.527Z,27.00
2018-07-19T08:40:42.000Z,27.17
2018-07-19T08:44:45.471Z,27.12
2018-07-19T08:48:48.929Z,27.07
2018-07-19T08:52:52.374Z,27.05
2018-07-19T08:56:55.827Z,27.01
2018-07-19T09:00:59.263Z,27.07
2018-07-19T09:05:02.718Z,27.20
2018-07-19T09:09:08.477Z,27.27
2018-07-19T09:13:11.928Z,27.29
2018-07-19T09:17:15.445Z,27.35
2018-07-19T09:21:18.883Z,27.39
2018-07-19T09:25:22.430Z,27.53
2018-07-19T09:29:25.905Z,27.79
2018-07-19T09:33:29.400Z,27.96
2018-07-19T09:37:32.855Z,28.14
2018-07-19T09:41:36.275Z,28.16
2018-07-19T09:45:39.720Z,28.17
2018-07-19T09:49:43.189Z,28.13
2018-07-19T09:53:46.699Z,28.19
2018-07-19T09:57:50.182Z,28.18
2018-07-19T10:01:53.695Z,28.18
2018-07-19T10:05:57.106Z,28.25
2018-07-19T10:10:00.543Z,28.28
2018-07-19T10:14:04.241Z,28.36
2018-07-19T10:18:07.730Z,28.45
2018-07-19T10:22:11.197Z,28.60
2018-07-19T10:26:14.670Z,28.65
2018-07-19T10:30:18.177Z,28.72
2018-07-19T10:34:21.702Z,28.72
2018-07-19T10:38:25.177Z,28.67
2018-07-19T10:42:28.753Z,28.65
2018-07-19T10:46:32.202Z,28.70
2018-07-19T10:50:35.681Z,28.81
2018-07-19T10:54:39.094Z,28.81
2018-07-19T10:58:42.589Z,28.81
2018-07-19T11:02:46.053Z,28.83
2018-07-19T11:06:49.493Z,28.88
2018-07-19T11:10:52.936Z,29.04
2018-07-19T11:14:56.400Z,29.19
2018-07-19T11:18:59.856Z,29.35
2018-07-19T11:23:03.314Z,29.34
2018-07-19T11:27:06.787Z,29.22
2018-07-19T11:31:10.234Z,29.32
2018-07-19T11:35:13.722Z,29.38
2018-07-19T11:39:17.212Z,29.40
2018-07-19T11:43:21.687Z,29.50
2018-07-19T11:47:25.117Z,29.62
2018-07-19T11:51:28.593Z,29.75
2018-07-19T11:55:32.091Z,29.84
2018-07-19T11:59:35.529Z,29.88
2018-07-19T12:03:39.055Z,29.98
2018-07-19T12:07:42.545Z,30.09
2018-07-19T12:11:45.993Z,30.13
2018-07-19T12:15:50.079Z,30.39
2018-07-19T12:19:53.574Z,30.39
2018-07-19T12:23:57.031Z,30.34
2018-07-19T12:28:00.555Z,30.29
2018-07-19T12:32:04.011Z,30.17
2018-07-19T12:36:07.630Z,30.16
2018-07-19T12:40:11.077Z,30.16
2018-07-19T12:44:14.563Z,30.23
2018-07-19T12:48:18.010Z,30.32
2018-07-19T12:52:21.511Z,30.31
2018-07-19T12:56:24.950Z,30.21
2018-07-19T13:00:28.465Z,30.35
2018-07-19T13:04:31.938Z,30.53
2018-07-19T13:08:35.368Z,30.62
2018-07-19T13:12:38.795Z,30.68
2018-07-19T13:16:42.303Z,30.73
2018-07-19T13:20:45.818Z,30.74
2018-07-19T13:24:49.534Z,30.77
2018-07-19T13:28:52.947Z,30.80
2018-07-19T13:32:56.402Z,30.91
2018-07-19T13:36:59.863Z,31.01
2018-07-19T13:41:03.408Z,31.10
2018-07-19T13:45:07.259Z,31.13
2018-07-19T13:49:10.833Z,31.15
2018-07-19T13:53:37.734Z,31.27
2018-07-19T13:57:41.187Z,31.20
2018-07-19T14:01:44.911Z,31.14
2018-07-19T14:05:48.535Z,31.22
2018-07-19T14:09:52.056Z,31.20
2018-07-19T14:13:55.591Z,31.13
2018-07-19T14:17:59.070Z,31.08
2018-07-19T14:22:02.620Z,31.11
2018-07-19T14:26:06.430Z,31.20
2018-07-19T14:30:09.933Z,31.22
2018-07-19T14:34:13.605Z,31.22
2018-07-19T14:38:17.851Z,31.26
2018-07-19T14:42:21.917Z,31.27
2018-07-19T14:46:25.542Z,31.19
2018-07-19T14:50:29.027Z,31.21
2018-07-19T14:54:32.536Z,31.14
2018-07-19T14:58:36.167Z,31.11
2018-07-19T15:02:40.014Z,31.09
2018-07-19T15:06:43.447Z,31.07
2018-07-19T15:10:46.942Z,31.05
2018-07-19T15:14:50.765Z,31.00
2018-07-19T15:18:54.270Z,30.96
2018-07-19T15:22:57.749Z,30.92
2018-07-19T15:27:01.223Z,30.91
2018-07-19T15:31:04.702Z,30.87
2018-07-19T15:35:08.173Z,30.78
2018-07-19T15:39:11.610Z,30.71
2018-07-19T15:43:15.007Z,30.67
2018-07-19T15:47:18.476Z,30.63
2018-07-19T15:51:21.952Z,30.61
2018-07-19T15:55:25.435Z,30.56
2018-07-19T15:59:28.825Z,30.48
2018-07-19T16:03:32.280Z,30.43
2018-07-19T16:07:35.761Z,30.35
2018-07-19T16:11:39.202Z,30.29
2018-07-19T16:15:42.688Z,30.23
2018-07-19T16:19:46.155Z,30.17
2018-07-19T16:23:49.648Z,30.14
2018-07-19T16:27:53.135Z,30.13
2018-07-19T16:31:56.603Z,30.09
2018-07-19T16:36:00.089Z,30.02
2018-07-19T16:40:03.527Z,30.00
2018-07-19T16:44:07.191Z,29.95
2018-07-19T16:48:10.702Z,29.91
2018-07-19T16:52:14.139Z,29.88
2018-07-19T16:56:17.621Z,29.83
2018-07-19T17:00:21.092Z,29.79
2018-07-19T17:04:24.565Z,29.74
2018-07-19T17:08:28.046Z,29.67
2018-07-19T17:12:31.606Z,29.60
2018-07-19T17:16:35.049Z,29.55
2018-07-19T17:20:38.518Z,29.53
2018-07-19T17:24:41.997Z,29.51
2018-07-19T17:28:45.451Z,29.49
2018-07-19T17:32:48.882Z,29.45
2018-07-19T17:36:52.363Z,29.43
2018-07-19T17:40:55.814Z,29.40
2018-07-19T17:44:59.263Z,29.38
2018-07-19T17:49:02.715Z,29.32
2018-07-19T17:53:06.674Z,29.22
2018-07-19T17:57:10.190Z,29.15
2018-07-19T18:01:13.693Z,29.09
2018-07-19T18:05:17.199Z,29.02
2018-07-19T18:09:20.670Z,28.96
2018-07-19T18:13:24.166Z,28.89
2018-07-19T18:17:27.639Z,28.83
2018-07-19T18:21:31.152Z,28.75
2018-07-19T18:25:34.624Z,28.66
2018-07-19T18:29:38.100Z,28.61
2018-07-19T18:33:41.628Z,28.50
2018-07-19T18:37:45.110Z,28.42
2018-07-19T18:41:48.561Z,28.34
2018-07-19T18:45:52.040Z,28.24
2018-07-19T18:49:55.454Z,28.15
2018-07-19T18:53:59.001Z,28.06
2018-07-19T18:58:02.486Z,27.95
2018-07-19T19:02:06.037Z,27.83
2018-07-19T19:06:09.550Z,27.73
2018-07-19T19:10:12.991Z,27.64
2018-07-19T19:14:16.408Z,27.52
2018-07-19T19:18:19.882Z,27.39
2018-07-19T19:22:23.351Z,27.25
2018-07-19T19:26:26.862Z,27.08
2018-07-19T19:30:30.317Z,26.95
2018-07-19T19:34:33.785Z,26.84
2018-07-19T19:38:37.267Z,26.78
2018-07-19T19:42:40.730Z,26.71
2018-07-19T19:46:44.191Z,26.66
2018-07-19T19:50:47.666Z,26.63
2018-07-19T19:54:51.448Z,26.58
2018-07-19T19:58:55.070Z,26.50
2018-07-19T20:02:58.492Z,26.42
2018-07-19T20:07:01.887Z,26.33
2018-07-19T20:11:05.267Z,26.22
2018-07-19T20:15:08.672Z,26.10
2018-07-19T20:19:12.088Z,26.01
2018-07-19T20:23:17.669Z,25.88
2018-07-19T20:27:21.047Z,25.78
2018-07-19T20:31:24.469Z,25.69
2018-07-19T20:35:27.900Z,25.59
2018-07-19T20:39:31.283Z,25.50
2018-07-19T20:43:35.677Z,25.45
2018-07-19T20:47:39.058Z,25.38
2018-07-19T20:51:42.512Z,25.29
2018-07-19T20:55:45.891Z,25.21
2018-07-19T20:59:49.394Z,25.12
2018-07-19T21:03:52.916Z,25.03
2018-07-19T21:07:56.557Z,24.97
2018-07-19T21:11:59.977Z,24.91
2018-07-19T21:16:03.465Z,24.86
2018-07-19T21:20:06.943Z,24.79
2018-07-19T21:24:10.319Z,24.74
2018-07-19T21:28:13.717Z,24.69
2018-07-19T21:32:17.162Z,24.63
2018-07-19T21:36:20.652Z,24.59
2018-07-19T21:40:24.036Z,24.54
2018-07-19T21:44:27.469Z,24.50
2018-07-19T21:48:31.013Z,24.44
2018-07-19T21:52:34.420Z,24.38
2018-07-19T21:56:37.816Z,24.33
2018-07-19T22:00:46.406Z,24.26
2018-07-19T22:04:49.781Z,24.21
2018-07-19T22:08:53.192Z,24.18
2018-07-19T22:12:56.576Z,24.16
2018-07-19T22:16:59.997Z,24.12
2018-07-19T22:21:03.374Z,24.05
2018-07-19T22:25:06.977Z,23.97
2018-07-19T22:29:10.369Z,23.89
2018-07-19T22:33:13.761Z,23.79
2018-07-19T22:37:17.158Z,23.72
2018-07-19T22:41:20.735Z,23.68
2018-07-19T22:45:24.644Z,23.64
2018-07-19T22:49:28.221Z,23.58
2018-07-19T22:53:33.952Z,23.55
2018-07-19T22:57:37.408Z,23.53
2018-07-19T23:01:40.860Z,23.50
2018-07-19T23:05:44.373Z,23.43
2018-07-19T23:09:47.888Z,23.37
2018-07-19T23:13:51.473Z,23.33
2018-07-19T23:17:55.317Z,23.26
2018-07-19T23:21:59.009Z,23.24
2018-07-19T23:26:03.033Z,23.24
2018-07-19T23:30:07.023Z,23.22
2018-07-19T23:34:12.302Z,23.22
2018-07-19T23:38:23.614Z,23.20
2018-07-19T23:42:46.892Z,23.16
2018-07-19T23:47:25.799Z,23.14
2018-07-19T23:51:30.476Z,23.10
2018-07-19T23:55:34.912Z,23.09
2018-07-19T23:59:39.620Z,23.05
